x

9441102 - Westport, Wa (wptw1) Weather Station

12:36 - Sun 23rd Jul 2017 All times are PDT. -7 hours from GMT.

  • Wind
    24mph, 30mph gusts
  • Sea Temp 58°f
  • Luft Temp 57°f
  • Sea Pressure 1020mb
  • 9441102 - Westport, Wa
  • 9441102 - Westport, Wa

More Historic Weather Station data

Upgrade to MSW Pro to gain access to the past 30 days of data for over 8000 Wavebouys and Weather Stations around the globe.

Join Pro

Comparision Forecast

View Surf forecast
   
So 07/23 12:36 24 30 mph 1020mb 58f 57f
12:30 23 28 mph 1020.1mb 58f 57f
12:24 24 28 mph 1020mb 58f 57f
12:18 22 28 mph 1020.1mb 58f 57f
12:12 23 26 mph 1020.1mb 58f 57f
12:06 21 23 mph 1020.1mb 58f 57f
12:00 22 25 mph 1020.2mb 59f 57f
Sa 07/22 11:36 21 25 mph 1020.2mb 60f 57f
11:30 21 24 mph 1020.2mb 60f 58f
11:24 20 23 mph 1020.3mb 60f 58f
11:18 18 20 mph 1020.2mb 60f 58f
11:12 18 21 mph 1020.2mb 60f 58f
11:06 17 22 mph 1020.3mb 60f 58f
11:00 16 20 mph 1020.3mb 60f 58f
10:36 17 23 mph 1020.4mb 61f 57f
10:30 20 23 mph 1020.4mb 61f 57f
10:24 22 24 mph 1020.4mb 61f 57f
10:18 21 23 mph 1020.4mb 61f 57f
10:12 20 23 mph 1020.5mb 61f 57f
10:06 18 22 mph 1020.5mb 61f 57f
10:00 21 22 mph 1020.5mb 61f 57f
9:36 20 24 mph 1020.5mb 60f 58f
9:30 23 26 mph 1020.5mb 60f 58f
9:24 22 26 mph 1020.4mb 60f 58f
9:18 22 25 mph 1020.3mb 60f 58f
9:12 21 23 mph 1020.3mb 60f 58f
9:06 18 22 mph 1020.4mb 60f 58f
9:00 21 23 mph 1020.3mb 60f 58f
8:36 18 22 mph 1020.3mb 61f 60f
8:30 17 20 mph 1020.3mb 60f 60f
8:24 18 21 mph 1020.3mb 60f 61f
8:18 18 22 mph 1020.3mb 60f 61f
8:12 17 20 mph 1020.3mb 60f 61f
8:06 17 22 mph 1020.3mb 61f 61f
8:00 16 20 mph 1020.4mb 61f 61f
7:36 17 20 mph 1020.4mb 61f 61f
7:30 17 21 mph 1020.4mb 61f 62f
7:24 18 21 mph 1020.3mb 61f 62f
7:18 17 21 mph 1020.3mb 61f 62f
7:12 17 21 mph 1020.3mb 61f 62f
7:06 17 21 mph 1020.4mb 61f 62f
7:00 17 18 mph 1020.5mb 61f 62f
6:36 15 16 mph 1020.7mb 61f 62f
6:30 14 16 mph 1020.7mb 61f 61f
6:24 14 16 mph 1020.8mb 61f 61f
6:18 14 15 mph 1020.8mb 61f 61f
6:12 13 14 mph 1020.9mb 61f 61f
6:06 14 15 mph 1020.9mb 61f 62f
6:00 15 16 mph 1020.8mb 61f 62f
5:36 14 15 mph 1021mb 60f 64f
5:30 13 14 mph 1021mb 60f 64f
5:24 13 14 mph 1021mb 60f 64f
5:18 13 14 mph 1021.1mb 60f 64f
5:12 13 14 mph 1021.1mb 60f 64f
5:06 14 16 mph 1021.1mb 60f 64f
5:00 14 15 mph 1021.2mb 60f 64f
4:36 14 15 mph 1021.5mb 60f 64f
4:30 13 15 mph 1021.5mb 60f 64f
4:24 13 14 mph 1021.5mb 60f 64f
4:18 13 14 mph 1021.6mb 60f 64f
4:12 13 14 mph 1021.6mb 60f 64f
4:06 11 14 mph 1021.6mb 60f 64f
4:00 13 14 mph 1021.6mb 60f 64f
3:36 10 11 mph 1021.8mb 60f 62f
3:30 9 10 mph 1021.9mb 60f 62f
3:24 10 13 mph 1022mb 60f 61f
3:18 10 11 mph 1022mb 60f 61f
3:12 9 11 mph 1022mb 60f 61f
3:06 9 13 mph 1022mb 60f 61f
3:00 8 10 mph 1022.1mb 60f 62f
2:36 8 9 mph 1022.2mb 60f 62f
2:30 8 9 mph 1022.3mb 60f 62f
2:24 8 10 mph 1022.3mb 60f 62f
2:18 6 8 mph 1022.4mb 60f 63f
2:12 6 9 mph 1022.4mb 60f 63f
2:06 6 9 mph 1022.5mb 60f 62f
2:00 7 8 mph 1022.5mb 60f 63f
1:36 6 9 mph 1022.4mb 60f 64f
1:30 7 9 mph 1022.5mb 60f 63f
1:24 8 9 mph 1022.5mb 60f 63f
1:18 8 10 mph 1022.4mb 60f 63f
1:12 7 10 mph 1022.4mb 60f 63f
1:06 7 9 mph 1022.4mb 60f 63f
1:00 8 9 mph 1022.5mb 60f 63f
12:36 7 10 mph 1022.5mb 60f 63f
12:30 7 11 mph 1022.5mb 60f 63f
12:24 9 11 mph 1022.5mb 60f 62f
12:18 10 11 mph 1022.5mb 60f 62f
12:12 8 11 mph 1022.6mb 60f 62f
12:06 9 11 mph 1022.6mb 60f 62f
12:00 7 11 mph 1022.6mb 60f 64f
11:36 9 11 mph 1022.5mb 59f 62f
11:30 9 11 mph 1022.5mb 59f 63f
11:24 9 13 mph 1022.4mb 59f 63f
11:18 8 10 mph 1022.5mb 59f 62f
11:12 8 11 mph 1022.4mb 59f 62f
11:06 8 11 mph 1022.4mb 59f 62f
11:00 9 13 mph 1022.4mb 59f 61f
10:36 9 11 mph 1022.4mb 59f 61f
10:30 8 11 mph 1022.4mb 59f 61f
10:24 8 10 mph 1022.4mb 59f 62f
10:18 7 10 mph 1022.4mb 59f 62f
10:12 7 10 mph 1022.4mb 59f 62f
10:06 6 10 mph 1022.3mb 59f 62f
10:00 7 10 mph 1022.3mb 58f 62f
9:36 5 6 mph 1022.3mb 58f 61f
9:30 5 8 mph 1022.3mb 58f 61f
9:24 5 7 mph 1022.3mb 58f 61f
9:18 3 5 mph 1022.3mb 58f 61f
9:12 3 6 mph 1022.4mb 58f 61f
9:06 5 6 mph 1022.4mb 58f 60f
9:00 5 6 mph 1022.5mb 58f 61f
8:36 3 6 mph 1022.5mb 58f 60f
8:30 3 6 mph 1022.4mb 58f 60f
8:24 5 6 mph 1022.4mb 58f 60f
8:18 3 6 mph 1022.4mb 58f 60f
8:12 3 6 mph 1022.3mb 58f 60f
8:06 3 5 mph 1022.3mb 59f 60f
8:00 2 3 mph 1022.3mb 59f 60f
7:36 3 6 mph 1022.1mb 60f 60f
7:30 5 6 mph 1022mb 60f 60f
7:24 5 6 mph 1022mb 60f 60f
7:18 3 6 mph 1022mb 60f 60f
7:12 5 6 mph 1022mb 60f 60f
7:06 5 6 mph 1022mb 59f 59f
7:00 2 5 mph 1022mb 59f 59f
6:36 3 7 mph 1021.7mb 58f 59f
6:30 3 6 mph 1021.7mb 58f 59f
6:24 2 6 mph 1021.6mb 58f 59f
6:18 3 6 mph 1021.6mb 58f 59f
6:12 5 8 mph 1021.5mb 58f 59f
6:06 3 6 mph 1021.5mb 58f 59f
6:00 5 7 mph 1021.5mb 58f 59f
5:36 6 8 mph 1021.4mb 58f 59f
5:30 7 8 mph 1021.4mb 58f 59f
5:24 6 9 mph 1021.4mb 58f 59f
5:18 7 10 mph 1021.4mb 58f 60f
5:12 5 7 mph 1021.4mb 59f 60f
5:06 5 7 mph 1021.3mb 59f 60f
5:00 5 9 mph 1021.2mb 58f 60f
4:36 5 9 mph 1021.1mb 58f 60f
4:30 5 7 mph 1021.1mb 58f 60f
4:24 3 7 mph 1021.1mb 58f 60f
4:18 5 8 mph 1021.1mb 58f 61f
4:12 6 8 mph 1021.1mb 58f 61f
4:06 6 9 mph 1021.1mb 57f 61f
4:00 6 9 mph 1021.1mb 57f 61f
3:36 5 8 mph 1021.1mb 57f 61f
3:30 5 7 mph 1021.1mb 57f 60f
3:24 6 7 mph 1021.1mb 57f 60f
3:18 6 8 mph 1021.1mb 57f 61f
3:12 6 8 mph 1021.1mb 57f 61f
3:06 6 7 mph 1021.1mb 57f 61f
3:00 5 8 mph 1021mb 57f 61f
2:36 5 7 mph 1021.1mb 57f 61f
2:30 5 7 mph 1021.1mb 57f 61f
2:24 5 6 mph 1021.1mb 57f 61f
2:18 5 6 mph 1021.1mb 57f 61f
2:12 5 7 mph 1021.1mb 57f 61f
2:06 5 7 mph 1021.1mb 56f 61f
2:00 5 6 mph 1021.1mb 57f 61f
1:54 5 6 mph 1021.1mb 57f 61f
1:48 5 7 mph 1021.2mb 56f 61f
1:36 6 6 mph 1021.3mb 56f 61f
1:30 5 7 mph 1021.3mb 56f 61f
1:24 5 6 mph 1021.3mb 57f 61f
1:18 5 6 mph 1021.4mb 57f 61f
1:12 3 6 mph 1021.3mb 57f 61f
1:06 3 5 mph 1021.4mb 57f 61f
1:00 3 3 mph 1021.3mb 57f 61f
12:54 2 3 mph 1021.4mb 58f 61f
12:48 2 5 mph 1021.3mb 58f 61f
12:36 5 6 mph 1021.3mb 58f 61f
12:30 5 6 mph 1021.4mb 58f 61f
12:24 3 5 mph 1021.4mb 58f 61f
12:18 3 5 mph 1021.3mb 58f 61f
12:12 2 3 mph 1021.3mb 58f 61f
12:06 2 6 mph 1021.3mb 58f 61f
12:00 5 6 mph 1021.3mb 58f 61f
Fr 07/21 11:54 3 5 mph 1021.4mb 58f 61f
11:48 3 5 mph 1021.4mb 58f 61f
11:36 5 6 mph 1021.4mb 58f 61f
11:30 3 6 mph 1021.4mb 58f 61f
11:24 5 6 mph 1021.3mb 58f 60f
11:18 5 6 mph 1021.3mb 58f 60f
11:12 5 7 mph 1021.2mb 58f 60f
11:06 6 7 mph 1021.3mb 58f 60f
11:00 5 6 mph 1021.3mb 58f 60f
10:54 5 6 mph 1021.2mb 58f 60f
10:36 5 6 mph 1021.2mb 58f 60f
10:30 5 6 mph 1021.1mb 58f 60f
10:24 6 6 mph 1021.2mb 58f 60f
10:18 5 6 mph 1021.2mb 58f 60f
10:12 6 6 mph 1021.2mb 58f 60f
10:06 6 6 mph 1021.1mb 58f 60f
10:00 5 6 mph 1021mb 58f 60f
9:54 5 6 mph 1021mb 58f 60f
9:48 5 6 mph 1021mb 58f 60f
9:36 6 7 mph 1021mb 58f 60f
9:30 6 7 mph 1021mb 58f 60f
9:24 5 6 mph 1020.9mb 58f 60f
9:18 5 6 mph 1020.9mb 58f 60f
9:12 3 6 mph 1020.8mb 58f 60f
9:06 5 6 mph 1020.7mb 58f 60f
9:00 5 6 mph 1020.8mb 59f 60f
8:54 5 6 mph 1020.7mb 59f 60f
8:48 5 6 mph 1020.6mb 59f 60f
8:36 5 5 mph 1020.7mb 58f 60f
8:30 3 5 mph 1020.7mb 58f 60f
8:24 5 5 mph 1020.6mb 58f 60f
8:18 3 3 mph 1020.7mb 58f 61f
8:12 3 6 mph 1020.6mb 58f 61f
8:06 5 7 mph 1020.7mb 58f 61f
8:00 6 6 mph 1020.7mb 58f 61f
7:54 5 6 mph 1020.6mb 58f 61f
7:48 5 6 mph 1020.7mb 58f 61f
7:36 6 7 mph 1020.8mb 58f 62f
7:30 6 6 mph 1020.7mb 58f 61f
7:24 5 7 mph 1020.8mb 58f 61f
7:18 5 6 mph 1020.9mb 58f 61f
7:12 6 6 mph 1020.9mb 58f 61f
7:06 5 6 mph 1020.9mb 58f 62f
7:00 5 7 mph 1020.9mb 59f 61f
6:54 6 7 mph 1020.9mb 59f 61f
6:48 6 7 mph 1020.9mb 59f 61f
6:36 6 8 mph 1020.9mb 59f 61f
6:30 6 9 mph 1020.9mb 59f 61f
6:24 7 8 mph 1020.9mb 59f 61f
6:18 6 8 mph 1021mb 59f 61f
6:12 7 8 mph 1021mb 59f 62f
6:06 6 7 mph 1021mb 59f 62f
6:00 6 8 mph 1021mb 59f 61f
5:54 8 9 mph 1021.1mb 59f 61f
5:48 7 9 mph 1021.1mb 59f 62f
5:36 7 9 mph 1021.1mb 59f 61f
5:30 6 9 mph 1021.1mb 59f 62f
5:24 7 10 mph 1021.1mb 59f 62f
5:18 6 8 mph 1021.2mb 59f 62f
5:12 7 9 mph 1021.2mb 59f 62f
5:06 6 9 mph 1021.3mb 59f 62f
5:00 7 9 mph 1021.4mb 59f 62f
4:54 7 9 mph 1021.3mb 59f 63f
4:48 7 9 mph 1021.4mb 59f 62f
4:36 8 10 mph 1021.5mb 59f 62f
4:30 7 9 mph 1021.4mb 59f 62f
4:24 7 10 mph 1021.5mb 59f 62f
4:18 8 9 mph 1021.5mb 59f 62f
4:12 7 10 mph 1021.5mb 59f 62f
4:06 8 11 mph 1021.6mb 58f 62f
4:00 8 10 mph 1021.5mb 58f 62f
3:54 7 9 mph 1021.5mb 58f 62f
3:48 8 11 mph 1021.6mb 58f 61f
3:36 9 11 mph 1021.6mb 58f 61f
3:30 9 11 mph 1021.6mb 58f 62f
3:24 9 11 mph 1021.6mb 58f 61f
3:18 8 11 mph 1021.6mb 58f 62f
3:12 8 13 mph 1021.6mb 58f 61f
3:06 9 14 mph 1021.7mb 58f 61f
3:00 10 14 mph 1021.7mb 58f 61f
2:54 11 14 mph 1021.6mb 58f 61f
2:48 9 13 mph 1021.7mb 57f 62f
2:36 10 14 mph 1021.7mb 57f 62f
2:30 10 15 mph 1021.7mb 57f 61f
2:24 11 15 mph 1021.7mb 57f 62f
2:18 10 14 mph 1021.8mb 57f 62f
2:12 10 13 mph 1021.8mb 57f 61f
2:06 10 14 mph 1021.7mb 57f 61f
2:00 10 14 mph 1021.7mb 57f 61f
1:54 10 14 mph 1021.7mb 57f 61f
1:48 9 14 mph 1021.7mb 57f 61f
1:36 10 14 mph 1021.6mb 57f 62f
1:30 10 15 mph 1021.5mb 57f 62f
1:24 11 14 mph 1021.6mb 57f 61f
1:18 13 14 mph 1021.5mb 57f 61f
1:12 10 14 mph 1021.4mb 57f 62f
1:06 11 13 mph 1021.4mb 57f 61f
1:00 13 14 mph 1021.4mb 57f 60f
12:54 10 14 mph 1021.4mb 57f 61f
12:48 10 14 mph 1021.5mb 57f 60f
12:36 9 11 mph 1021.4mb 57f 62f
12:30 11 13 mph 1021.4mb 57f 61f
12:24 10 13 mph 1021.4mb 57f 61f
12:18 11 14 mph 1021.4mb 56f 61f
12:12 9 13 mph 1021.4mb 56f 61f
12:06 9 13 mph 1021.5mb 56f 61f
12:00 8 13 mph 1021.3mb 56f 61f
11:54 9 14 mph 1021.3mb 56f 61f
11:48 11 14 mph 1021.4mb 56f 60f
11:36 9 13 mph 1021.4mb 56f 60f
11:30 8 11 mph 1021.4mb 56f 61f
11:24 9 10 mph 1021.4mb 57f 60f
11:18 7 10 mph 1021.3mb 57f 60f
11:12 8 11 mph 1021.4mb 58f 60f
11:06 8 10 mph 1021.4mb 58f 60f
11:00 10 11 mph 1021.4mb 58f 60f
10:54 8 13 mph 1021.4mb 58f 61f
10:48 9 11 mph 1021.4mb 58f 60f
10:36 7 10 mph 1021.4mb 58f 60f
10:30 8 10 mph 1021.4mb 58f 60f
10:24 8 11 mph 1021.3mb 58f 60f
10:18 8 11 mph 1021.3mb 58f 60f
10:12 7 10 mph 1021.3mb 58f 61f
10:06 8 10 mph 1021.2mb 58f 61f
10:00 9 11 mph 1021.1mb 58f 60f
9:54 7 10 mph 1021.2mb 58f 60f
9:48 7 9 mph 1021mb 58f 60f
9:36 8 10 mph 1021mb 58f 59f
9:30 8 10 mph 1021mb 57f 60f
9:24 6 9 mph 1020.9mb 57f 60f
9:18 7 10 mph 1021mb 57f 59f
9:12 8 10 mph 1021mb 57f 58f
9:06 8 9 mph 1021mb 57f 58f
9:00 6 9 mph 1021.1mb 57f 59f
8:54 3 6 mph 1021.1mb 57f 59f
8:48 3 6 mph 1021.1mb 57f 59f
8:36 2 5 mph 1021.1mb 57f 58f
8:30 2 5 mph 1021mb 57f 58f
8:24 2 3 mph 1020.9mb 57f 57f
8:18 2 3 mph 1020.9mb 57f 57f
8:12 2 3 mph 1020.8mb 57f 56f
8:06 2 3 mph 1020.7mb 58f 57f
8:00 2 3 mph 1020.7mb 58f 56f
7:54 2 3 mph 1020.7mb 58f 56f
7:48 3 5 mph 1020.7mb 58f 56f
7:36 3 5 mph 1020.6mb 58f 56f
7:30 5 5 mph 1020.6mb 58f 55f
7:24 5 5 mph 1020.6mb 58f 55f
7:18 5 6 mph 1020.5mb 58f 55f
7:12 5 6 mph 1020.5mb 58f 55f
7:06 5 5 mph 1020.5mb 58f 55f
7:00 5 5 mph 1020.5mb 58f 55f
6:54 5 5 mph 1020.5mb 58f 55f
6:48 3 3 mph 1020.4mb 58f 56f
6:36 3 3 mph 1020.4mb 58f 56f
6:30 3 3 mph 1020.3mb 58f 56f
6:24 3 5 mph 1020.3mb 58f 55f
6:18 3 5 mph 1020.3mb 58f 56f
6:12 5 5 mph 1020.2mb 58f 56f
6:06 5 6 mph 1020.1mb 58f 55f
6:00 5 5 mph 1020.2mb 58f 55f
5:54 5 5 mph 1020.1mb 58f 55f
5:48 5 6 mph 1020.1mb 58f 55f
5:36 6 6 mph 1020.1mb 57f 55f
5:30 6 6 mph 1020.1mb 57f 54f
5:24 6 6 mph 1020.1mb 57f 54f
5:18 6 6 mph 1020.1mb 57f 54f
5:12 5 5 mph 1020mb 57f 55f
5:06 3 3 mph 1020mb 57f 56f
5:00 3 5 mph 1020mb 57f 56f
4:54 3 5 mph 1020mb 57f 56f
4:48 2 3 mph 1020mb 57f 56f
4:36 2 3 mph 1020.1mb 56f 56f
4:30 3 5 mph 1020mb 56f 56f
4:24 5 5 mph 1020mb 56f 56f
4:18 3 3 mph 1020mb 56f 56f
4:12 3 3 mph 1020.1mb 58f 56f
4:06 3 3 mph 1020.1mb 58f 56f
4:00 3 3 mph 1020mb 58f 56f
3:54 3 3 mph 1020.1mb 58f 56f
3:48 2 2 mph 1020.1mb 57f 56f
3:36  -  1 mph 1020.2mb 56f 56f
3:30 1 2 mph 1020.2mb 56f 56f
3:24 1 2 mph 1020.3mb 56f 56f
3:18  -  1 mph 1020.3mb 56f 56f
3:12 1 2 mph 1020.3mb 56f 56f
3:06 1 2 mph 1020.3mb 56f 56f
3:00  -  1 mph 1020.3mb 55f 56f
2:54  -  1 mph 1020.3mb 55f 56f
2:48 1 1 mph 1020.3mb 56f 56f
2:36 1 2 mph 1020.4mb 55f 56f
2:30  -  0 mph 1020.4mb 55f 56f
2:24  -  1 mph 1020.4mb 55f 57f
2:18  -  2 mph 1020.5mb 55f 56f
2:12 2 3 mph 1020.5mb 55f 56f
2:06 2 2 mph 1020.5mb 55f 56f
2:00 2 3 mph 1020.5mb 55f 56f
1:54  -  0 mph 1020.5mb 55f 57f
1:48  -  0 mph 1020.5mb 55f 56f
1:36  -  1 mph 1020.5mb 55f 57f
1:30  -  1 mph 1020.6mb 55f 57f
1:24 1 1 mph 1020.5mb 55f 57f
1:18 1 1 mph 1020.6mb 55f 57f
1:12  -  0 mph 1020.5mb 55f 57f
1:06  -  0 mph 1020.5mb 55f 57f
1:00  -  0 mph 1020.5mb 55f 57f
12:54  -  1 mph 1020.5mb 54f 56f
12:48 1 1 mph 1020.5mb 54f 56f
12:36  -  0 mph 1020.5mb 54f 57f
12:30  -  0 mph 1020.6mb 54f 57f
12:24  -  1 mph 1020.6mb 55f 57f
12:18  -  1 mph 1020.6mb 55f 57f
12:12  -  1 mph 1020.6mb 55f 57f
12:06 1 1 mph 1020.6mb 55f 57f
12:00 1 1 mph 1020.6mb 55f 57f
Do 07/20 11:54 1 2 mph 1020.6mb 55f 57f
11:48 2 2 mph 1020.7mb 55f 58f
11:36 2 2 mph 1020.7mb 55f 58f
11:30 2 3 mph 1020.8mb 55f 58f
11:24 3 3 mph 1020.8mb 55f 58f
11:18 3 3 mph 1020.8mb 55f 58f
11:12 3 3 mph 1020.8mb 55f 58f
11:06 3 5 mph 1020.8mb 55f 58f
11:00 3 3 mph 1020.8mb 55f 58f
10:54 3 3 mph 1020.8mb 55f 58f
10:48 3 3 mph 1020.8mb 55f 58f
10:36 5 5 mph 1020.9mb 55f 58f
10:30 5 5 mph 1020.9mb 55f 58f
10:24 3 5 mph 1020.8mb 55f 58f
10:18 3 5 mph 1020.8mb 55f 58f
10:12 3 5 mph 1020.8mb 56f 58f
10:06 3 5 mph 1020.7mb 56f 58f
10:00 5 5 mph 1020.8mb 56f 58f
9:54 5 5 mph 1020.7mb 56f 59f
9:48 5 6 mph 1020.8mb 56f 59f
9:36 5 5 mph 1020.7mb 56f 58f
9:30 5 6 mph 1020.7mb 56f 58f
9:24 5 5 mph 1020.7mb 56f 58f
9:18 3 3 mph 1020.6mb 56f 59f
9:12 3 3 mph 1020.6mb 56f 59f
9:06 3 3 mph 1020.6mb 56f 59f
9:00 3 3 mph 1020.6mb 56f 59f
8:54 3 3 mph 1020.7mb 56f 59f
8:48 3 3 mph 1020.7mb 56f 59f
8:36 3 3 mph 1020.8mb 56f 60f
8:30 2 5 mph 1020.9mb 56f 60f
8:24 3 5 mph 1020.9mb 56f 60f
8:18 3 5 mph 1020.9mb 56f 60f
8:12 2 5 mph 1020.9mb 56f 60f
8:06 3 5 mph 1021mb 57f 60f
8:00 5 6 mph 1021mb 57f 60f
7:54 5 7 mph 1021mb 57f 61f
7:48 5 8 mph 1021mb 57f 61f
7:36 7 8 mph 1021mb 57f 61f
7:30 6 8 mph 1021mb 57f 61f
7:24 6 8 mph 1021mb 58f 61f
7:18 6 7 mph 1021mb 58f 61f
7:12 7 8 mph 1021mb 58f 61f
7:06 6 8 mph 1021mb 58f 61f
7:00 6 9 mph 1021mb 58f 61f
6:54 7 9 mph 1021mb 58f 61f
6:48 7 8 mph 1021mb 58f 62f
6:36 7 9 mph 1020.9mb 58f 62f
6:30 7 9 mph 1020.9mb 58f 62f
6:24 6 9 mph 1020.9mb 58f 62f
6:18 7 9 mph 1021mb 58f 61f
6:12 7 9 mph 1021mb 58f 62f
6:06 8 10 mph 1021.1mb 58f 61f
6:00 7 9 mph 1021.1mb 58f 62f
5:54 8 10 mph 1021.1mb 58f 62f
5:48 8 11 mph 1021.2mb 58f 62f
5:36 8 10 mph 1021.3mb 58f 62f
5:30 10 13 mph 1021.4mb 58f 61f
5:24 10 11 mph 1021.4mb 58f 61f
5:18 9 13 mph 1021.5mb 58f 62f
5:12 9 13 mph 1021.5mb 59f 62f
5:06 10 13 mph 1021.5mb 59f 62f
5:00 11 14 mph 1021.6mb 59f 61f
4:54 9 13 mph 1021.6mb 59f 61f
4:48 10 13 mph 1021.6mb 59f 61f
4:36 9 11 mph 1021.7mb 59f 61f
4:30 9 11 mph 1021.7mb 59f 61f
4:24 9 11 mph 1021.7mb 59f 61f
4:18 8 11 mph 1021.7mb 59f 62f
4:12 8 11 mph 1021.7mb 59f 62f
4:06 7 10 mph 1021.8mb 59f 62f
4:00 8 10 mph 1021.8mb 59f 62f
3:54 8 11 mph 1021.8mb 59f 61f
3:48 8 11 mph 1021.8mb 59f 61f
3:36 8 11 mph 1021.8mb 59f 62f
3:30 9 13 mph 1021.8mb 59f 62f
3:24 8 11 mph 1021.9mb 59f 62f
3:18 8 11 mph 1022mb 59f 62f
3:12 8 11 mph 1022mb 58f 62f
3:06 9 11 mph 1022mb 58f 61f
3:00 9 13 mph 1022mb 58f 61f
2:54 9 11 mph 1022mb 58f 61f
2:48 9 13 mph 1022mb 58f 61f
2:36 8 11 mph 1022mb 58f 62f
2:30 8 11 mph 1021.9mb 57f 61f
2:24 8 11 mph 1021.9mb 57f 61f
2:18 9 14 mph 1021.9mb 57f 60f
2:12 9 13 mph 1021.9mb 56f 62f
2:06 9 11 mph 1021.9mb 56f 62f
2:00 9 13 mph 1021.8mb 56f 61f
1:54 8 13 mph 1021.8mb 56f 61f
1:48 10 13 mph 1021.8mb 56f 61f
1:36 10 13 mph 1021.8mb 55f 61f
1:30 10 13 mph 1021.8mb 55f 61f
1:24 9 13 mph 1021.8mb 55f 62f
1:18 9 14 mph 1021.8mb 55f 61f
1:12 10 14 mph 1021.8mb 54f 62f
1:06 11 14 mph 1021.8mb 54f 61f
1:00 10 14 mph 1021.8mb 55f 61f
12:54 10 13 mph 1021.7mb 55f 61f
12:48 9 13 mph 1021.7mb 55f 60f
12:36 10 13 mph 1021.6mb 55f 59f
12:30 9 14 mph 1021.6mb 54f 61f
12:24 11 15 mph 1021.5mb 54f 60f
12:18 9 13 mph 1021.5mb 54f 61f
12:12 8 11 mph 1021.4mb 54f 62f
12:06 9 11 mph 1021.4mb 54f 62f
12:00 8 11 mph 1021.4mb 54f 61f
11:54 9 11 mph 1021.4mb 54f 61f
11:48 8 11 mph 1021.4mb 54f 61f
11:36 8 9 mph 1021.3mb 54f 62f
11:30 7 10 mph 1021.3mb 54f 61f
11:24 7 9 mph 1021.2mb 54f 61f
11:18 7 10 mph 1021.2mb 54f 61f
11:12 7 8 mph 1021.1mb 54f 60f
11:06 6 8 mph 1021.1mb 54f 61f
11:00 6 8 mph 1021.1mb 54f 61f
10:54 5 7 mph 1021mb 55f 61f
10:48 5 7 mph 1021mb 55f 61f
10:36 6 8 mph 1020.8mb 55f 61f
10:30 6 8 mph 1020.7mb 56f 61f
10:24 5 6 mph 1020.6mb 56f 61f
10:18 5 7 mph 1020.6mb 56f 61f
10:12 3 7 mph 1020.5mb 57f 61f
10:06 5 7 mph 1020.5mb 58f 60f
10:00 5 7 mph 1020.5mb 58f 60f
9:54 5 5 mph 1020.4mb 58f 60f
9:48 5 7 mph 1020.4mb 58f 60f
9:36 3 6 mph 1020.3mb 58f 59f
9:30 3 6 mph 1020.3mb 58f 58f
9:24 5 6 mph 1020.3mb 58f 58f
9:18 6 7 mph 1020.3mb 58f 58f
9:12 7 10 mph 1020.2mb 58f 58f
9:06 6 7 mph 1020.1mb 58f 59f
9:00 3 6 mph 1020.1mb 58f 59f
8:54 3 5 mph 1020mb 58f 59f
8:48 2 3 mph 1020mb 58f 59f
8:36 2 3 mph 1019.9mb 57f 59f
8:30 2 5 mph 1019.9mb 57f 59f
8:24 3 5 mph 1019.9mb 57f 59f
8:18 3 5 mph 1019.9mb 57f 59f
8:12 3 5 mph 1019.8mb 57f 58f
8:06 3 6 mph 1019.8mb 57f 58f
8:00 3 5 mph 1019.7mb 57f 58f
7:54 5 6 mph 1019.7mb 57f 58f
7:48 3 5 mph 1019.6mb 57f 58f
7:36 3 5 mph 1019.5mb 56f 58f
7:30 3 5 mph 1019.5mb 56f 58f
7:24 5 6 mph 1019.5mb 56f 57f
7:18 5 6 mph 1019.5mb 56f 57f
7:12 5 6 mph 1019.5mb 56f 57f
7:06 5 6 mph 1019.4mb 56f 57f
7:00 5 6 mph 1019.4mb 56f 57f
6:54 6 7 mph 1019.4mb 56f 57f
6:48 5 6 mph 1019.4mb 57f 57f
6:36 7 10 mph 1019.3mb 57f 57f
6:30 9 11 mph 1019.3mb 57f 58f
6:24 7 8 mph 1019.1mb 57f 58f
6:18 6 8 mph 1019.1mb 57f 58f
6:12 6 8 mph 1019mb 58f 58f
6:06 7 8 mph 1019mb 58f 58f
6:00 6 8 mph 1018.9mb 58f 58f
5:54 7 9 mph 1018.8mb 58f 57f
5:48 7 9 mph 1018.7mb 58f 58f
5:36 6 8 mph 1018.7mb 58f 58f
5:30 6 8 mph 1018.6mb 58f 58f
5:24 6 7 mph 1018.6mb 57f 58f
5:18 6 7 mph 1018.5mb 57f 58f
5:12 5 7 mph 1018.6mb 57f 58f
5:06 6 8 mph 1018.5mb 57f 58f
5:00 7 9 mph 1018.5mb 57f 58f
4:54 7 9 mph 1018.5mb 57f 58f
4:48 8 9 mph 1018.5mb 57f 58f
4:36 6 9 mph 1018.4mb 57f 58f
4:30 6 8 mph 1018.3mb 57f 58f
4:24 6 7 mph 1018.2mb 57f 58f
4:18 5 7 mph 1018.2mb 57f 57f
4:12 5 6 mph 1018.1mb 57f 57f
4:06 5 6 mph 1018.1mb 57f 57f
4:00 3 5 mph 1018.1mb 56f 57f
3:54 3 5 mph 1018mb 56f 57f
3:48 3 5 mph 1018.1mb 56f 57f
3:36 3 5 mph 1018mb 56f 57f
3:30 5 5 mph 1018.1mb 56f 57f
3:24 3 3 mph 1018.1mb 56f 57f
3:18 3 5 mph 1018.1mb 57f 57f
3:12 3 5 mph 1018mb 57f 57f
3:06 2 3 mph 1018mb 57f 57f
3:00 2 2 mph 1018mb 56f 57f
2:54 1 1 mph 1018mb 56f 57f
2:48 1 2 mph 1018mb 56f 57f
2:36 2 2 mph 1018mb 55f 56f
2:30 1 2 mph 1018mb 55f 56f
2:24 1 1 mph 1018mb 55f 57f
2:18 1 1 mph 1017.9mb 55f 57f
2:12  -  1 mph 1017.9mb 55f 57f
2:06  -  0 mph 1017.9mb 55f 57f
2:00  -  2 mph 1018mb 55f 57f
1:54 2 5 mph 1018mb 55f 57f
1:48 5 6 mph 1018.1mb 55f 57f
1:36 8 11 mph 1018.1mb 55f 57f
1:30 11 13 mph 1018.1mb 55f 58f
1:24 11 14 mph 1018.1mb 55f 58f
1:18 10 13 mph 1018.1mb 55f 58f
1:12 9 11 mph 1018.1mb 55f 58f
1:06 9 13 mph 1018.1mb 55f 58f
1:00 9 13 mph 1018mb 55f 58f
12:54 9 14 mph 1018mb 55f 59f
12:48 10 13 mph 1018mb 55f 59f
12:36 8 11 mph 1017.9mb 55f 60f
12:30 9 13 mph 1018mb 55f 60f
12:24 7 14 mph 1018mb 55f 60f
12:18 9 13 mph 1018mb 55f 59f
12:12 8 11 mph 1018mb 55f 59f
12:06 8 13 mph 1018mb 55f 59f
12:00 8 11 mph 1018mb 55f 59f
Mi 07/19 11:54 7 13 mph 1018mb 55f 59f
11:48 8 11 mph 1017.9mb 55f 59f
11:36 7 11 mph 1018mb 55f 59f
11:30 8 9 mph 1018mb 55f 59f
11:24 7 10 mph 1018mb 55f 59f
11:18 8 10 mph 1018mb 55f 59f
11:12 7 9 mph 1018mb 55f 59f
11:06 7 9 mph 1018mb 55f 59f
11:00 7 9 mph 1018mb 55f 59f
10:54 7 9 mph 1018.1mb 55f 59f
10:48 7 9 mph 1018.1mb 55f 58f
10:36 7 10 mph 1018.1mb 55f 58f
10:30 8 11 mph 1018.1mb 55f 58f
10:24 6 8 mph 1018.1mb 55f 58f
10:18 7 8 mph 1018.2mb 55f 58f
10:12 7 9 mph 1018.2mb 55f 58f
10:06 7 9 mph 1018.1mb 55f 58f
10:00 6 8 mph 1018.2mb 55f 58f
9:54 7 9 mph 1018.2mb 55f 58f
9:48 7 9 mph 1018.2mb 55f 58f
9:36 6 8 mph 1018.2mb 55f 58f
9:30 6 9 mph 1018.1mb 55f 58f
9:24 6 7 mph 1018.1mb 55f 59f
9:18 6 7 mph 1018.1mb 55f 59f
9:12 6 7 mph 1018mb 55f 59f
9:06 6 6 mph 1018mb 55f 59f
9:00 6 6 mph 1018mb 55f 59f
8:54 6 6 mph 1018mb 55f 58f
8:48 6 6 mph 1018mb 55f 58f
8:36 6 6 mph 1018mb 55f 59f
8:30 6 6 mph 1018mb 55f 59f
8:24 6 6 mph 1017.9mb 55f 59f
8:18 5 6 mph 1017.9mb 55f 59f
8:12 5 7 mph 1017.9mb 55f 60f
8:06 6 7 mph 1017.9mb 55f 60f
8:00 6 6 mph 1017.9mb 55f 60f
7:54 6 7 mph 1017.9mb 55f 60f
7:48 5 6 mph 1017.9mb 55f 61f
7:36 6 8 mph 1018mb 56f 61f
7:30 6 8 mph 1017.9mb 56f 60f
7:24 6 7 mph 1018mb 56f 60f
7:18 6 8 mph 1018mb 56f 60f
7:12 6 8 mph 1018mb 56f 60f
7:06 7 9 mph 1018mb 56f 60f
7:00 7 9 mph 1018mb 57f 60f
6:54 8 9 mph 1018mb 57f 60f
6:48 6 8 mph 1018mb 57f 61f
6:36 7 10 mph 1018mb 57f 61f
6:30 7 10 mph 1018mb 56f 61f
6:24 7 9 mph 1018mb 56f 60f
6:18 6 8 mph 1018.1mb 56f 60f
6:12 7 8 mph 1018.1mb 56f 59f
6:06 7 9 mph 1018.1mb 56f 60f
6:00 7 10 mph 1018.1mb 56f 60f
5:54 8 10 mph 1018.2mb 56f 60f
5:48 7 10 mph 1018.2mb 56f 61f
5:36 8 10 mph 1018.2mb 56f 61f
5:30 7 10 mph 1018.3mb 56f 61f
5:24 7 11 mph 1018.3mb 56f 61f
5:18 9 11 mph 1018.3mb 56f 61f
5:12 7 10 mph 1018.4mb 56f 61f
5:06 8 10 mph 1018.3mb 56f 61f
5:00 7 10 mph 1018.4mb 56f 60f
4:54 8 10 mph 1018.5mb 56f 61f
4:48 8 10 mph 1018.6mb 57f 61f
4:36 8 13 mph 1018.8mb 57f 61f
4:30 11 14 mph 1018.8mb 57f 60f
4:24 10 13 mph 1018.8mb 57f 60f
4:18 10 13 mph 1018.8mb 57f 59f
4:12 8 10 mph 1018.7mb 57f 60f
4:06 7 10 mph 1018.8mb 58f 60f
4:00 9 14 mph 1018.9mb 58f 60f
3:54 8 11 mph 1019mb 58f 60f
3:48 9 11 mph 1019mb 58f 60f
3:36 10 13 mph 1019.1mb 58f 61f
3:30 10 14 mph 1019.2mb 58f 61f
3:24 10 14 mph 1019.1mb 58f 61f
3:18 10 15 mph 1019.2mb 58f 61f
3:12 11 14 mph 1019.1mb 58f 60f
3:06 11 15 mph 1019.1mb 58f 61f
3:00 10 14 mph 1019.1mb 58f 62f
2:54 11 14 mph 1019.1mb 58f 61f
2:48 10 15 mph 1019.2mb 58f 61f
2:36 11 15 mph 1019.1mb 58f 60f
2:30 9 13 mph 1019.2mb 58f 61f
2:24 10 14 mph 1019.2mb 58f 60f
2:18 10 14 mph 1019.2mb 58f 61f
2:12 11 14 mph 1019.2mb 58f 60f
2:06 11 14 mph 1019.2mb 58f 60f
2:00 10 13 mph 1019.2mb 58f 60f
1:54 9 13 mph 1019.2mb 58f 61f
1:48 10 14 mph 1019.3mb 58f 61f
1:36 10 14 mph 1019.3mb 58f 60f
1:30 11 14 mph 1019.4mb 57f 60f
1:24 10 14 mph 1019.4mb 57f 61f
1:18 9 14 mph 1019.4mb 57f 61f
1:12 10 13 mph 1019.4mb 56f 60f
1:06 10 13 mph 1019.5mb 56f 60f
1:00 11 14 mph 1019.5mb 56f 60f
12:54 10 13 mph 1019.5mb 56f 61f
12:48 9 11 mph 1019.5mb 55f 61f
12:36 9 11 mph 1019.6mb 55f 61f
12:30 7 9 mph 1019.6mb 55f 61f
12:24 7 10 mph 1019.6mb 55f 61f
12:18 6 9 mph 1019.6mb 54f 62f
12:12 6 9 mph 1019.6mb 55f 62f
12:06 7 9 mph 1019.7mb 55f 62f
12:00 7 9 mph 1019.7mb 55f 62f
11:54 2 6 mph 1019.8mb 55f 63f
11:48 6 8 mph 1019.8mb 55f 62f
11:36 7 10 mph 1019.8mb 54f 61f
11:30 6 8 mph 1019.8mb 54f 62f
11:24 6 8 mph 1019.8mb 54f 61f
11:18 6 8 mph 1019.9mb 54f 60f
11:12 6 8 mph 1019.9mb 53f 61f
11:06 6 8 mph 1019.8mb 53f 61f
11:00 3 8 mph 1019.8mb 53f 60f
10:54 5 7 mph 1019.9mb 53f 61f
10:48 3 7 mph 1019.9mb 53f 60f
10:36 6 8 mph 1020mb 52f 60f
10:30 6 7 mph 1020mb 52f 60f
10:24 6 7 mph 1020mb 53f 60f
10:18 6 8 mph 1020mb 53f 59f
10:12 6 8 mph 1020mb 53f 59f
10:06 6 7 mph 1020mb 53f 60f
10:00 5 7 mph 1019.9mb 53f 59f
9:54 6 7 mph 1020mb 53f 59f
9:48 6 7 mph 1020mb 54f 59f
9:36 5 7 mph 1020mb 54f 59f
9:30 5 7 mph 1020mb 55f 59f
9:24 6 7 mph 1020mb 56f 59f
9:18 5 7 mph 1020mb 57f 59f
9:12 5 6 mph 1020mb 58f 59f
9:06 6 7 mph 1020.1mb 58f 59f